Chadstone Weather > Observations for 29/09/20

Select Day:



Observations
Time Temp Hum DP Wind Gust Dir Rain >9am Press
C % C kph kph mm hPa
00:00 8.2 82 5.3 1.2 5.0 SSE 0.0 1032.5
00:10 8.0 82 5.1 0.2 2.5 S 0.0 1032.5
00:20 7.8 83 5.1 0.0 0.0 N 0.0 1032.5
00:30 7.6 83 4.9 0.0 0.0 N 0.0 1032.4
00:40 7.4 83 4.7 0.1 2.5 N 0.0 1032.4
00:50 7.3 84 4.8 0.0 1.1 N 0.0 1032.3
01:00 7.2 84 4.7 0.0 1.1 N 0.0 1032.4
01:10 7.0 84 4.5 0.0 0.0 N 0.0 1032.3
01:20 6.8 86 4.6 0.0 0.0 N 0.0 1032.3
01:30 6.6 86 4.4 0.0 0.0 N 0.0 1032.1
01:40 6.5 86 4.3 0.2 2.5 SE 0.0 1031.8
01:50 6.4 87 4.4 0.2 2.5 SE 0.0 1031.5
02:00 6.2 87 4.2 1.6 3.6 SE 0.0 1031.2
02:10 6.0 87 4.0 0.1 2.5 S 0.0 1031.0
02:20 6.0 87 4.0 0.0 1.1 NE 0.0 1030.8
02:30 5.9 89 4.2 0.0 0.0 N 0.0 1030.6
02:40 5.8 89 4.1 0.0 0.0 N 0.0 1030.7
02:50 5.8 89 4.1 0.0 0.0 N 0.0 1030.6
03:00 5.8 89 4.1 0.9 3.6 NNW 0.0 1030.7
03:10 6.0 89 4.3 0.9 5.0 N 0.0 1030.5
03:20 6.0 89 4.3 0.0 0.0 N 0.0 1030.6
03:30 5.7 90 4.2 0.0 0.0 N 0.0 1030.7
03:40 5.6 90 4.1 0.0 0.0 N 0.0 1030.7
03:50 5.5 90 4.0 0.0 1.1 N 0.0 1030.7
04:00 5.4 90 3.9 0.0 0.0 N 0.0 1030.6
04:10 5.3 90 3.8 0.6 2.5 N 0.0 1030.5
04:20 5.3 90 3.8 0.0 2.5 N 0.0 1030.5
04:30 5.4 91 4.1 1.4 5.0 NNE 0.0 1030.4
04:40 5.5 91 4.1 1.8 5.0 NNE 0.0 1030.4
04:50 5.6 91 4.2 1.4 5.0 NE 0.0 1030.3
05:00 5.7 92 4.5 0.4 5.0 NE 0.0 1030.5
05:10 5.7 92 4.5 0.0 2.5 NE 0.0 1030.7
05:20 5.8 92 4.6 1.4 5.0 NNE 0.0 1030.9
05:30 5.9 93 4.9 1.6 6.1 NNE 0.0 1030.8
05:40 5.9 93 4.9 0.6 3.6 NNE 0.0 1030.9
05:50 5.9 93 4.9 1.0 5.0 NNE 0.0 1031.1
06:00 5.9 93 4.9 2.3 7.2 N 0.0 1031.1
06:10 5.9 93 4.9 2.4 6.1 NNE 0.0 1031.4
06:20 5.9 93 4.9 2.4 7.2 NNE 0.0 1031.5
06:30 6.0 92 4.8 3.0 6.1 NNE 0.0 1031.6
06:40 6.2 92 5.0 3.8 7.2 NNE 0.0 1031.8
06:50 6.3 92 5.1 4.0 9.7 N 0.0 1031.7
07:00 6.3 93 5.3 4.8 9.7 NNE 0.0 1031.9
07:10 6.5 93 5.5 4.1 8.6 NNE 0.0 1032.0
07:20 6.7 93 5.6 2.7 8.6 NNE 0.0 1032.0
07:30 6.8 93 5.7 6.1 9.7 NNE 0.0 1031.8
07:40 7.3 92 6.1 4.7 9.7 NE 0.0 1031.7
07:50 7.8 92 6.6 4.9 9.7 NNE 0.0 1032.0
08:00 8.1 91 6.7 5.3 11.2 N 0.0 1032.1
08:10 8.6 91 7.2 5.8 11.2 NNE 0.0 1032.0
08:20 9.0 89 7.3 6.3 12.2 N 0.0 1031.9
08:30 9.6 88 7.7 7.0 13.3 NNE 0.0 1031.6
08:40 10.1 86 7.9 6.3 12.2 NNE 0.0 1031.2
08:50 10.6 85 8.2 4.8 8.6 NNE 0.0 1030.9
09:00 11.3 83 8.5 7.1 13.3 ENE 0.0 1030.5
09:10 11.9 82 8.9 6.0 9.7 NE 0.0 1030.3
09:20 12.7 79 9.2 5.9 12.2 ENE 0.0 1030.1
09:30 13.2 75 8.9 5.9 11.2 NNE 0.0 1029.6
09:40 13.9 71 8.7 6.7 13.3 N 0.0 1029.4
09:50 14.4 69 8.8 6.6 12.2 NNE 0.0 1029.3
10:00 15.0 66 8.7 7.0 14.8 N 0.0 1029.2
10:10 15.3 63 8.3 9.3 15.8 NNE 0.0 1029.1
10:20 15.6 63 8.6 8.5 17.3 NNE 0.0 1029.0
10:30 15.9 62 8.6 9.8 18.4 NE 0.0 1028.9
10:40 16.2 60 8.4 8.8 20.9 NE 0.0 1028.7
10:50 16.3 59 8.3 8.4 17.3 NNE 0.0 1028.5
11:00 16.9 58 8.6 10.0 19.4 NNW 0.0 1028.4
11:10 17.3 55 8.2 10.0 18.4 NNW 0.0 1028.3
11:20 17.5 55 8.4 10.2 18.4 NNE 0.0 1027.9
11:30 17.7 55 8.6 8.2 15.8 NE 0.0 1027.7
11:40 17.8 54 8.4 7.9 18.4 N 0.0 1027.6
11:50 18.2 53 8.5 10.6 19.4 NNE 0.0 1027.6
12:00 18.6 49 7.7 10.6 18.4 NNE 0.0 1027.6
12:10 18.9 50 8.3 9.4 18.4 NNW 0.0 1027.6
12:20 19.6 48 8.3 8.4 15.8 NNW 0.0 1027.3
12:30 19.6 46 7.7 10.8 20.9 N 0.0 1027.4
12:40 19.8 46 7.9 7.8 17.3 N 0.0 1027.2
12:50 19.8 45 7.5 9.0 23.4 N 0.0 1027.1
13:00 19.8 43 6.9 9.9 17.3 N 0.0 1026.9
13:10 19.8 42 6.5 10.7 19.4 N 0.0 1026.8
13:20 19.9 43 7.0 8.7 19.4 NNW 0.0 1026.6
13:30 19.9 43 7.0 10.4 20.9 N 0.0 1026.4
13:40 19.9 43 7.0 14.0 24.5 NNE 0.0 1026.3
13:50 20.2 41 6.5 12.3 22.0 N 0.0 1026.1
14:00 20.3 41 6.6 9.9 24.5 NNE 0.0 1025.8
14:10 20.3 42 7.0 13.1 24.5 NNE 0.0 1025.7
14:20 20.4 42 7.1 12.6 24.5 N 0.0 1025.3
14:30 20.4 40 6.4 12.4 25.6 NNE 0.0 1025.2
14:40 20.4 40 6.4 11.5 28.1 NNE 0.0 1025.1
14:50 20.4 40 6.4 17.0 29.5 NE 0.0 1024.9
15:00 20.5 40 6.4 15.1 27.0 NE 0.0 1024.9
15:10 20.5 39 6.1 14.6 23.4 NNE 0.0 1024.8
15:20 20.5 39 6.1 15.2 28.1 NE 0.0 1024.7
15:30 20.5 39 6.1 15.9 29.5 NNE 0.0 1024.6
15:40 20.6 37 5.4 11.0 24.5 N 0.0 1024.6
15:50 20.6 35 4.6 12.9 27.0 NNE 0.0 1024.7
16:00 20.5 36 4.9 15.7 31.7 N 0.0 1024.9
16:10 20.2 36 4.7 14.9 30.6 N 0.0 1025.1
16:20 20.1 37 5.0 11.3 23.4 NNE 0.0 1025.0
16:30 19.8 39 5.5 12.2 29.5 N 0.0 1025.1
16:40 19.5 41 5.9 15.0 24.5 NNE 0.0 1024.9
16:50 19.4 43 6.5 12.6 24.5 N 0.0 1025.0
17:00 19.2 43 6.3 11.6 23.4 N 0.0 1025.0
17:10 19.2 42 6.0 11.1 24.5 N 0.0 1025.1
17:20 19.1 42 5.9 11.5 24.5 N 0.0 1025.1
17:30 18.9 43 6.1 12.8 25.6 NNW 0.0 1025.1
17:40 18.8 44 6.3 10.2 20.9 N 0.0 1025.1
17:50 18.6 45 6.4 8.5 20.9 N 0.0 1025.1
18:00 18.4 45 6.3 8.1 17.3 N 0.0 1025.1
18:10 18.2 46 6.4 4.6 11.2 NW 0.0 1025.0
18:20 18.0 47 6.5 5.3 12.2 NNW 0.0 1024.9
18:30 17.8 48 6.7 4.8 9.7 NW 0.0 1024.9
18:40 17.7 49 6.9 4.5 9.7 N 0.0 1024.8
18:50 17.6 51 7.4 7.9 15.8 NNW 0.0 1024.4
19:00 17.5 51 7.3 5.4 13.3 N 0.0 1024.2
19:10 17.4 51 7.2 5.7 11.2 N 0.0 1024.2
19:20 17.3 52 7.4 5.0 9.7 N 0.0 1024.3
19:30 17.2 52 7.3 3.4 7.2 NE 0.0 1024.1
19:40 17.1 53 7.5 4.1 8.6 NNE 0.0 1024.1
19:50 17.1 53 7.5 6.5 13.3 NNE 0.0 1023.9
20:00 17.1 53 7.5 5.6 11.2 NE 0.0 1023.7
20:10 17.0 54 7.6 5.8 13.3 NNE 0.0 1023.6
20:20 16.9 56 8.1 6.6 13.3 NNE 0.0 1023.6
20:30 16.8 56 8.0 4.2 8.6 NE 0.0 1023.7
20:40 16.7 56 7.9 5.0 9.7 NE 0.0 1023.6
20:50 16.6 57 8.1 4.1 8.6 NNE 0.0 1023.6
21:00 16.5 57 8.0 5.7 9.7 NNE 0.0 1023.5
21:10 16.4 59 8.4 7.0 12.2 N 0.0 1023.3
21:20 16.3 60 8.5 6.7 13.3 N 0.0 1023.3
21:30 16.3 62 9.0 5.6 13.3 NNE 0.0 1023.3
21:40 16.3 63 9.3 5.8 12.2 N 0.0 1023.1
21:50 16.2 62 8.9 6.0 11.2 NNE 0.0 1023.0
22:00 16.1 63 9.1 5.5 9.7 N 0.0 1022.8
22:10 16.1 63 9.1 6.8 15.8 NNE 0.0 1022.5
22:20 16.1 63 9.1 6.5 15.8 NNE 0.0 1022.4
22:30 16.2 63 9.2 7.6 13.3 N 0.0 1022.2
22:40 16.2 63 9.2 6.3 11.2 N 0.0 1022.1
22:50 16.2 63 9.2 7.6 13.3 NW 0.0 1022.1
23:00 16.1 63 9.1 7.0 15.8 NNE 0.0 1022.1
23:10 16.1 63 9.1 7.4 14.8 NNE 0.0 1022.0
23:20 16.2 63 9.2 7.5 14.8 NNE 0.0 1021.8
23:30 16.3 62 9.0 8.6 19.4 NNW 0.0 1021.9
23:40 16.5 61 9.0 12.4 24.5 N 0.0 1021.8
23:50 16.6 61 9.1 11.2 28.1 N 0.0 1021.6